Time;durP1;ratioP1;P1;durP2;ratioP2;P2;SDS_P1;SDS_P2;PMS_P1;PMS_P2;Temp;Humidity;BMP_temperature;BMP_pressure;BME280_temperature;BME280_humidity;BME280_pressure;Samples;Min_cycle;Max_cycle;Signal;HPM_P1;HPM_P2
2023/05/10 00:00:15;;;;;;;17.80;16.20;;;15.00;99.90;;;;;;5022395;28;20044;-74
2023/05/10 00:02:41;;;;;;;18.48;16.80;;;15.00;99.90;;;;;;5014657;28;20033;-73
2023/05/10 00:05:07;;;;;;;18.23;16.52;;;15.00;99.90;;;;;;5016920;28;20037;-73
2023/05/10 00:07:33;;;;;;;15.60;14.23;;;15.00;99.90;;;;;;5025218;28;20038;-73
2023/05/10 00:09:58;;;;;;;9.60;8.70;;;14.90;99.90;;;;;;5022413;28;20053;-73
2023/05/10 00:12:24;;;;;;;9.88;8.85;;;14.90;99.90;;;;;;5023179;28;20041;-73
2023/05/10 00:14:49;;;;;;;10.23;9.23;;;14.80;99.90;;;;;;5021844;28;20033;-73
2023/05/10 00:17:15;;;;;;;9.30;8.50;;;14.70;99.90;;;;;;5023878;28;20045;-72
2023/05/10 00:19:41;;;;;;;10.70;9.80;;;14.70;99.90;;;;;;5024970;28;20508;-72
2023/05/10 00:22:06;;;;;;;11.07;10.05;;;14.60;99.90;;;;;;5016970;28;20132;-72
2023/05/10 00:24:32;;;;;;;12.15;11.15;;;14.60;99.90;;;;;;5022371;28;20057;-72
2023/05/10 00:26:57;;;;;;;12.30;11.20;;;14.60;99.90;;;;;;5023161;28;20041;-73
2023/05/10 00:29:23;;;;;;;13.18;12.07;;;14.60;99.90;;;;;;5023391;28;20038;-73
2023/05/10 00:31:49;;;;;;;14.25;12.70;;;14.50;99.90;;;;;;5017934;28;20060;-72
2023/05/10 00:34:15;;;;;;;13.27;12.07;;;14.50;99.90;;;;;;5027833;28;20034;-72
2023/05/10 00:36:43;;;;;;;14.65;13.00;;;14.50;99.90;;;;;;5017268;28;20128;-73
2023/05/10 00:39:09;;;;;;;13.13;11.95;;;14.40;99.90;;;;;;5021595;28;20090;-72
2023/05/10 00:41:35;;;;;;;12.98;11.80;;;14.40;99.90;;;;;;5016293;28;20068;-72
2023/05/10 00:44:01;;;;;;;12.52;11.43;;;14.30;99.90;;;;;;5023717;28;20045;-72
2023/05/10 00:46:28;;;;;;;12.77;11.63;;;14.30;99.90;;;;;;5031478;28;20103;-72
2023/05/10 00:48:54;;;;;;;12.13;10.93;;;14.30;99.90;;;;;;5024073;28;20045;-72
2023/05/10 00:51:19;;;;;;;12.95;11.75;;;14.30;99.90;;;;;;5021190;28;20401;-73
2023/05/10 00:53:46;;;;;;;12.55;11.38;;;14.30;99.90;;;;;;5025003;28;20057;-72
2023/05/10 00:56:12;;;;;;;13.18;12.00;;;14.30;99.90;;;;;;5027890;28;20034;-73
2023/05/10 00:58:39;;;;;;;14.27;12.98;;;14.30;99.90;;;;;;5022712;28;20076;-72
2023/05/10 01:01:05;;;;;;;14.25;13.05;;;14.30;99.90;;;;;;5019895;28;20042;-73
2023/05/10 01:03:31;;;;;;;14.55;13.15;;;14.30;99.90;;;;;;5022542;28;20175;-73
2023/05/10 01:05:57;;;;;;;14.13;12.83;;;14.30;99.90;;;;;;5025506;28;20037;-73
2023/05/10 01:08:24;;;;;;;15.10;13.70;;;14.20;99.90;;;;;;5025930;28;20498;-73
2023/05/10 01:10:49;;;;;;;14.70;13.40;;;14.20;99.90;;;;;;5022555;28;20048;-73
2023/05/10 01:13:32;;;;;;;15.15;13.82;;;14.20;99.90;;;;;;5025080;28;20033;-73
2023/05/10 01:15:58;;;;;;;14.45;13.15;;;14.20;99.90;;;;;;5020233;28;20068;-73
2023/05/10 01:18:24;;;;;;;14.90;13.38;;;14.10;99.90;;;;;;5018190;28;20041;-73
2023/05/10 01:21:06;;;;;;;15.60;14.20;;;14.10;99.90;;;;;;5020319;28;20037;-73
2023/05/10 01:24:03;;;;;;;15.73;14.25;;;14.10;99.90;;;;;;5019799;28;20052;-73
2023/05/10 01:26:51;;;;;;;16.45;14.95;;;14.10;99.90;;;;;;5014227;28;20667;-71
2023/05/10 01:29:40;;;;;;;15.77;14.38;;;14.10;99.90;;;;;;5025429;28;20052;-73
2023/05/10 01:32:08;;;;;;;15.93;14.43;;;14.00;99.90;;;;;;5026063;28;20120;-73
2023/05/10 01:35:10;;;;;;;17.85;16.05;;;14.00;99.90;;;;;;5022186;28;20057;-73
2023/05/10 01:37:41;;;;;;;16.23;14.73;;;14.00;99.90;;;;;;4997085;28;20087;-73
2023/05/10 01:40:35;;;;;;;17.60;15.90;;;14.00;99.90;;;;;;5017279;28;20041;-72
2023/05/10 01:43:05;;;;;;;17.52;15.95;;;14.00;99.90;;;;;;5016807;28;20078;-72
2023/05/10 01:45:39;;;;;;;16.45;14.85;;;13.90;99.90;;;;;;5023578;28;20057;-72
2023/05/10 01:48:13;;;;;;;17.15;15.55;;;13.90;99.90;;;;;;5018347;28;20192;-72
2023/05/10 01:50:43;;;;;;;16.63;15.13;;;14.00;99.90;;;;;;5016817;28;20076;-72
2023/05/10 01:53:11;;;;;;;16.60;15.10;;;13.90;99.90;;;;;;5020630;28;20044;-72
2023/05/10 01:55:49;;;;;;;16.33;14.93;;;14.00;99.90;;;;;;5022409;28;20397;-72
2023/05/10 01:58:27;;;;;;;16.60;15.10;;;13.90;99.90;;;;;;5023568;28;20047;-72
2023/05/10 02:00:53;;;;;;;17.67;16.10;;;13.90;99.90;;;;;;5022651;28;20087;-73
2023/05/10 02:03:23;;;;;;;16.65;15.18;;;13.90;99.90;;;;;;5022683;28;20045;-72
2023/05/10 02:05:51;;;;;;;17.73;16.02;;;13.90;99.90;;;;;;5027910;28;20033;-72
2023/05/10 02:08:19;;;;;;;17.25;15.68;;;13.90;99.90;;;;;;5026004;28;20045;-72
2023/05/10 02:10:45;;;;;;;;;;;13.90;99.90;;;;;;5023324;28;20095;-72
2023/05/10 02:13:12;;;;;;;17.50;15.95;;;13.90;99.90;;;;;;5026840;28;19921;-73
2023/05/10 02:15:38;;;;;;;;;;;13.90;99.90;;;;;;5023693;28;20053;-73
2023/05/10 02:18:05;;;;;;;17.60;15.90;;;13.80;99.90;;;;;;5022135;28;19944;-72
2023/05/10 02:20:33;;;;;;;17.67;15.98;;;13.90;99.90;;;;;;5020801;28;20043;-72
2023/05/10 02:23:00;;;;;;;17.52;15.93;;;13.90;99.90;;;;;;5023241;28;20056;-73
2023/05/10 02:25:28;;;;;;;18.02;16.23;;;13.90;99.90;;;;;;5024631;28;20132;-73
2023/05/10 02:27:55;;;;;;;17.90;16.15;;;13.80;99.90;;;;;;5021846;28;20120;-72
2023/05/10 02:30:22;;;;;;;;;;;13.80;99.90;;;;;;5021159;28;20045;-72
2023/05/10 02:32:50;;;;;;;17.67;15.98;;;13.80;99.90;;;;;;5023663;28;19929;-72
2023/05/10 02:35:16;;;;;;;17.98;16.20;;;13.80;99.90;;;;;;5021816;28;20049;-72
2023/05/10 02:37:43;;;;;;;17.50;15.77;;;13.80;99.90;;;;;;5012606;28;20046;-73
2023/05/10 02:40:11;;;;;;;17.02;15.40;;;13.80;99.90;;;;;;5017434;28;20125;-73
2023/05/10 02:42:38;;;;;;;18.83;17.02;;;13.80;99.90;;;;;;5025416;28;20037;-72
2023/05/10 02:45:17;;;;;;;17.50;15.90;;;13.80;99.90;;;;;;5027293;28;20041;-72
2023/05/10 02:47:43;;;;;;;17.10;15.50;;;13.80;99.90;;;;;;5021179;28;20038;-72
2023/05/10 02:50:09;;;;;;;17.67;16.00;;;13.80;99.90;;;;;;5019515;28;20049;-72
2023/05/10 02:52:47;;;;;;;16.98;15.38;;;13.80;99.90;;;;;;5018641;28;20044;-72
2023/05/10 02:55:16;;;;;;;17.77;15.95;;;13.80;99.90;;;;;;5024025;28;20121;-73
2023/05/10 02:58:02;;;;;;;17.33;15.52;;;13.80;99.90;;;;;;5018954;28;20045;-72
2023/05/10 03:00:28;;;;;;;16.83;15.15;;;13.80;99.90;;;;;;5023128;28;20060;-72
2023/05/10 03:02:54;;;;;;;15.93;14.52;;;13.80;99.90;;;;;;5025053;28;20053;-72
2023/05/10 03:05:20;;;;;;;16.13;14.63;;;13.80;99.90;;;;;;5016749;28;20175;-71
2023/05/10 03:07:47;;;;;;;16.88;15.18;;;13.80;99.90;;;;;;5021993;28;20049;-72
2023/05/10 03:10:12;;;;;;;15.37;13.77;;;13.80;99.90;;;;;;5019135;28;20092;-73
2023/05/10 03:13:26;;;;;;;16.70;14.90;;;13.70;99.90;;;;;;5022384;28;20050;-72
2023/05/10 03:16:29;;;;;;;14.40;13.00;;;13.70;99.90;;;;;;4971676;28;20089;-71
2023/05/10 03:19:01;;;;;;;14.88;13.40;;;13.70;99.90;;;;;;4921286;29;20062;-72
2023/05/10 03:21:29;;;;;;;15.40;13.90;;;13.70;99.90;;;;;;5002753;28;20065;-72
2023/05/10 03:24:05;;;;;;;14.23;12.82;;;13.60;99.90;;;;;;5019222;28;20104;-72
2023/05/10 03:26:31;;;;;;;15.25;13.85;;;13.70;99.90;;;;;;5017862;28;20127;-73
2023/05/10 03:28:58;;;;;;;16.30;14.67;;;13.70;99.90;;;;;;5022455;28;20414;-72
2023/05/10 03:31:25;;;;;;;15.90;14.30;;;13.70;99.90;;;;;;5023377;28;20045;-72
2023/05/10 03:33:52;;;;;;;15.50;13.90;;;13.70;99.90;;;;;;5023815;28;20590;-72
2023/05/10 03:36:18;;;;;;;15.05;13.55;;;13.70;99.90;;;;;;5025915;28;20361;-72
2023/05/10 03:38:44;;;;;;;14.88;13.38;;;13.60;99.90;;;;;;5022075;28;20152;-72
2023/05/10 03:41:10;;;;;;;15.20;13.02;;;13.60;99.90;;;;;;5014451;28;21862;-72
2023/05/10 03:43:36;;;;;;;14.70;13.30;;;13.60;99.90;;;;;;5024665;28;20132;-72
2023/05/10 03:46:05;;;;;;;14.32;12.88;;;13.60;99.90;;;;;;5016846;28;20068;-72
2023/05/10 03:48:32;;;;;;;14.13;12.73;;;13.60;99.90;;;;;;5022319;28;20047;-72
2023/05/10 03:50:57;;;;;;;14.00;12.70;;;13.60;99.90;;;;;;5019755;28;20041;-72
2023/05/10 03:53:23;;;;;;;13.90;12.50;;;13.60;99.90;;;;;;5020869;28;20052;-72
2023/05/10 03:55:49;;;;;;;13.70;12.40;;;13.50;99.90;;;;;;5018679;28;20037;-72
2023/05/10 03:58:15;;;;;;;13.00;11.73;;;13.50;99.90;;;;;;5021774;28;20046;-72
2023/05/10 04:00:45;;;;;;;13.90;12.50;;;13.50;99.90;;;;;;5018183;28;20528;-72
2023/05/10 04:03:11;;;;;;;12.93;11.63;;;13.50;99.90;;;;;;5023038;28;20223;-71
2023/05/10 04:05:37;;;;;;;13.23;11.93;;;13.50;99.90;;;;;;5021679;28;20037;-72
2023/05/10 04:08:03;;;;;;;13.48;12.07;;;13.50;99.90;;;;;;5022820;28;20052;-72
2023/05/10 04:10:29;;;;;;;13.20;11.90;;;13.50;99.90;;;;;;5019361;28;20041;-72
2023/05/10 04:12:55;;;;;;;12.13;10.98;;;13.50;99.90;;;;;;5023854;28;20442;-72
2023/05/10 04:15:20;;;;;;;11.43;10.32;;;13.40;99.90;;;;;;5018535;28;20385;-72
2023/05/10 04:17:46;;;;;;;12.35;11.15;;;13.40;99.90;;;;;;5023719;28;20033;-72
2023/05/10 04:20:12;;;;;;;11.88;10.75;;;13.50;99.90;;;;;;5022648;28;20045;-72
2023/05/10 04:22:38;;;;;;;13.02;11.73;;;13.40;99.90;;;;;;5019625;28;20054;-72
2023/05/10 04:25:04;;;;;;;13.20;11.80;;;13.40;99.90;;;;;;5022865;28;20033;-72
2023/05/10 04:27:30;;;;;;;14.07;12.23;;;13.40;99.90;;;;;;5022535;28;20038;-71
2023/05/10 04:29:57;;;;;;;12.55;11.30;;;13.40;99.90;;;;;;5021225;28;20049;-72
2023/05/10 04:32:22;;;;;;;12.75;11.45;;;13.40;99.90;;;;;;5025765;28;20053;-72
2023/05/10 04:34:48;;;;;;;13.65;12.25;;;13.40;99.90;;;;;;5022640;28;20129;-71
2023/05/10 04:37:14;;;;;;;12.88;11.65;;;13.30;99.90;;;;;;5018597;28;21749;-73
2023/05/10 04:39:39;;;;;;;13.45;12.02;;;13.40;99.90;;;;;;5022618;28;20164;-73
2023/05/10 04:42:05;;;;;;;13.30;11.90;;;13.40;99.90;;;;;;5025966;28;20041;-73
2023/05/10 04:44:34;;;;;;;12.60;11.27;;;13.30;99.90;;;;;;5022460;28;20037;-73
2023/05/10 04:46:59;;;;;;;13.35;12.05;;;13.40;99.90;;;;;;5021038;28;20156;-73
2023/05/10 04:49:25;;;;;;;12.70;11.50;;;13.30;99.90;;;;;;5017440;28;20465;-72
2023/05/10 04:51:51;;;;;;;13.20;11.73;;;13.30;99.90;;;;;;5015184;28;20042;-72
2023/05/10 04:54:16;;;;;;;13.63;12.32;;;13.30;99.90;;;;;;5020135;28;20469;-72
2023/05/10 04:56:42;;;;;;;13.98;12.15;;;13.30;99.90;;;;;;5018680;28;20436;-72
2023/05/10 04:59:07;;;;;;;13.45;12.15;;;13.30;99.90;;;;;;5021839;28;20037;-72
2023/05/10 05:01:33;;;;;;;14.05;12.48;;;13.30;99.90;;;;;;5020801;28;20044;-72
2023/05/10 05:04:00;;;;;;;14.48;13.02;;;13.30;99.90;;;;;;5017528;28;20127;-72
2023/05/10 05:06:26;;;;;;;13.82;12.43;;;13.30;99.90;;;;;;5016461;28;20053;-72
2023/05/10 05:08:54;;;;;;;14.48;13.05;;;13.20;99.90;;;;;;5015821;28;20049;-72
2023/05/10 05:11:20;;;;;;;14.13;12.68;;;13.20;99.90;;;;;;5015234;28;20052;-72
2023/05/10 05:13:46;;;;;;;14.15;12.75;;;13.20;99.90;;;;;;5013020;28;20033;-71
2023/05/10 05:16:12;;;;;;;13.88;12.30;;;13.30;99.90;;;;;;5022067;28;20167;-72
2023/05/10 05:18:37;;;;;;;12.93;11.63;;;13.20;99.90;;;;;;5021402;28;20412;-72
2023/05/10 05:21:12;;;;;;;13.45;12.18;;;13.20;99.90;;;;;;5021892;28;20049;-72
2023/05/10 05:23:38;;;;;;;13.57;11.60;;;13.30;99.90;;;;;;5025821;28;20120;-72
2023/05/10 05:26:04;;;;;;;13.52;10.85;;;13.30;99.90;;;;;;5017923;28;20451;-72
2023/05/10 05:28:32;;;;;;;11.93;10.50;;;13.30;99.90;;;;;;5023207;28;20045;-71
2023/05/10 05:30:58;;;;;;;12.07;10.73;;;13.20;99.90;;;;;;5017723;28;20069;-71
2023/05/10 05:33:23;;;;;;;11.90;10.23;;;13.20;99.90;;;;;;5021221;28;20103;-71
2023/05/10 05:35:51;;;;;;;12.45;10.15;;;13.20;99.90;;;;;;5010967;28;20049;-72
2023/05/10 05:38:17;;;;;;;12.00;9.32;;;13.20;99.90;;;;;;5010699;28;20069;-70
2023/05/10 05:40:43;;;;;;;11.57;9.63;;;13.20;99.90;;;;;;5017025;28;20132;-70
2023/05/10 05:43:08;;;;;;;14.30;10.35;;;13.20;99.90;;;;;;5015525;28;20045;-70
2023/05/10 05:45:34;;;;;;;11.18;9.98;;;13.20;99.90;;;;;;5018914;28;20141;-70
2023/05/10 05:48:00;;;;;;;10.90;9.00;;;13.20;99.90;;;;;;5037445;28;20049;-70
2023/05/10 05:50:25;;;;;;;13.88;9.73;;;13.20;99.90;;;;;;5039598;28;20052;-70
2023/05/10 05:52:51;;;;;;;11.40;9.05;;;13.20;99.90;;;;;;5037904;28;20038;-71
2023/05/10 05:55:19;;;;;;;12.07;9.07;;;13.20;99.90;;;;;;5033102;28;20044;-70
2023/05/10 05:57:44;;;;;;;10.30;9.07;;;13.20;99.90;;;;;;5046115;28;20135;-73
2023/05/10 06:00:10;;;;;;;11.35;9.13;;;13.20;99.90;;;;;;5039450;28;20457;-72
2023/05/10 06:02:36;;;;;;;11.52;9.77;;;13.30;99.90;;;;;;5037538;28;20041;-73
2023/05/10 06:05:02;;;;;;;11.68;9.20;;;13.30;99.90;;;;;;5051511;28;20033;-73
2023/05/10 06:07:28;;;;;;;11.73;9.48;;;13.30;99.90;;;;;;5038941;28;20560;-72
2023/05/10 06:09:53;;;;;;;13.43;9.10;;;13.30;99.90;;;;;;5047596;28;20112;-73
2023/05/10 06:12:19;;;;;;;11.68;9.38;;;13.40;99.90;;;;;;5044559;28;20400;-73
2023/05/10 06:14:44;;;;;;;12.82;9.00;;;13.40;99.90;;;;;;5040240;28;20045;-73
2023/05/10 06:17:10;;;;;;;12.38;9.30;;;13.40;99.90;;;;;;5044774;28;20687;-72
2023/05/10 06:19:36;;;;;;;14.10;9.82;;;13.40;99.90;;;;;;5039663;28;20560;-73
2023/05/10 06:22:02;;;;;;;11.75;9.20;;;13.40;99.90;;;;;;5042304;28;20069;-72
2023/05/10 06:24:28;;;;;;;10.77;8.85;;;13.40;99.90;;;;;;5039661;28;20045;-73
2023/05/10 06:26:53;;;;;;;10.98;9.02;;;13.50;99.90;;;;;;5039602;28;20041;-73
2023/05/10 06:29:19;;;;;;;14.80;9.30;;;13.40;99.90;;;;;;5033706;28;20041;-73
2023/05/10 06:31:45;;;;;;;12.18;9.15;;;13.50;99.90;;;;;;5042849;28;20049;-73
2023/05/10 06:34:11;;;;;;;11.65;9.15;;;13.50;99.90;;;;;;5045129;28;20048;-73
2023/05/10 06:36:37;;;;;;;14.98;10.13;;;13.50;99.90;;;;;;5037408;28;20041;-73
2023/05/10 06:39:03;;;;;;;13.93;9.85;;;13.50;99.90;;;;;;5039100;28;20060;-72
2023/05/10 06:41:28;;;;;;;11.25;9.63;;;13.50;99.90;;;;;;5037304;28;20037;-73
2023/05/10 06:43:54;;;;;;;13.77;9.63;;;13.60;99.90;;;;;;5039593;28;20511;-73
2023/05/10 06:46:20;;;;;;;11.82;9.32;;;13.60;99.90;;;;;;5043462;28;20032;-73
2023/05/10 06:48:45;;;;;;;14.00;9.55;;;13.60;99.90;;;;;;5046424;28;20660;-73
2023/05/10 06:51:11;;;;;;;12.57;9.18;;;13.70;99.90;;;;;;5046845;28;20043;-73
2023/05/10 06:53:37;;;;;;;11.50;9.68;;;13.70;99.90;;;;;;5041301;28;20052;-73
2023/05/10 06:56:03;;;;;;;14.10;9.57;;;13.80;99.90;;;;;;5041073;28;20049;-73
2023/05/10 06:58:28;;;;;;;10.15;8.95;;;13.80;99.90;;;;;;5037143;28;20060;-73
2023/05/10 07:00:54;;;;;;;14.05;9.60;;;13.90;99.90;;;;;;5036941;28;20045;-73
2023/05/10 07:03:19;;;;;;;10.98;9.05;;;13.90;99.90;;;;;;5040246;28;20502;-73
2023/05/10 07:05:45;;;;;;;11.23;8.95;;;14.00;99.90;;;;;;5039149;28;20032;-73
2023/05/10 07:08:11;;;;;;;9.75;7.90;;;14.00;99.90;;;;;;5047442;28;20048;-74
2023/05/10 07:10:37;;;;;;;10.40;8.60;;;13.90;99.90;;;;;;5042354;28;20476;-73
2023/05/10 07:13:02;;;;;;;10.18;8.25;;;14.00;99.90;;;;;;5042110;28;20049;-74
2023/05/10 07:15:28;;;;;;;11.20;8.30;;;14.10;99.90;;;;;;5039222;28;20122;-72
2023/05/10 07:17:54;;;;;;;9.48;7.50;;;14.10;99.90;;;;;;5041442;28;20452;-72
2023/05/10 07:20:20;;;;;;;10.48;8.15;;;14.10;99.90;;;;;;5035780;28;20584;-73
2023/05/10 07:22:45;;;;;;;11.15;8.02;;;14.20;99.90;;;;;;5039659;28;20053;-73
2023/05/10 07:25:11;;;;;;;9.80;8.05;;;14.20;99.90;;;;;;5033267;28;20480;-76
2023/05/10 07:27:37;;;;;;;11.85;8.27;;;14.20;99.90;;;;;;5040753;28;20131;-78
2023/05/10 07:30:02;;;;;;;8.90;7.90;;;14.20;99.90;;;;;;5034262;28;20209;-78
2023/05/10 07:32:28;;;;;;;9.75;7.55;;;14.20;99.90;;;;;;5042761;28;20181;-76
2023/05/10 07:34:54;;;;;;;10.27;7.20;;;14.20;99.90;;;;;;5038543;28;20037;-75
2023/05/10 07:37:19;;;;;;;9.30;7.55;;;14.10;99.90;;;;;;5041089;28;20114;-74
2023/05/10 07:39:45;;;;;;;11.13;7.80;;;14.10;99.90;;;;;;5042323;28;20076;-79
2023/05/10 07:42:11;;;;;;;9.27;6.85;;;14.10;99.90;;;;;;5045549;28;20033;-78
2023/05/10 07:44:36;;;;;;;10.95;7.05;;;14.10;99.90;;;;;;5040625;28;20090;-79
2023/05/10 07:47:02;;;;;;;8.38;6.60;;;14.10;99.90;;;;;;5044151;28;20095;-78
2023/05/10 07:49:27;;;;;;;10.10;6.95;;;14.00;99.90;;;;;;5040451;28;20068;-78
2023/05/10 07:51:53;;;;;;;10.90;7.03;;;14.10;99.90;;;;;;5042807;28;20037;-78
2023/05/10 07:54:19;;;;;;;9.70;6.80;;;14.10;99.90;;;;;;5045632;28;20049;-78
2023/05/10 07:56:48;;;;;;;11.02;6.80;;;14.10;99.90;;;;;;5041233;28;20040;-76
2023/05/10 07:59:16;;;;;;;9.88;7.60;;;14.10;99.90;;;;;;5043448;28;20060;-76
2023/05/10 08:01:42;;;;;;;12.77;7.90;;;14.10;99.90;;;;;;5041143;28;20037;-77
2023/05/10 08:04:08;;;;;;;10.88;7.32;;;14.10;99.90;;;;;;5045355;28;20049;-78
2023/05/10 08:06:34;;;;;;;10.85;7.13;;;14.10;99.90;;;;;;5038583;28;20753;-75
2023/05/10 08:09:00;;;;;;;9.32;7.47;;;14.20;99.90;;;;;;5045455;28;20040;-78
2023/05/10 08:11:27;;;;;;;9.80;7.53;;;14.20;99.90;;;;;;5044156;28;20468;-78
2023/05/10 08:13:54;;;;;;;10.77;7.55;;;14.20;99.90;;;;;;5044191;28;20048;-78
2023/05/10 08:16:20;;;;;;;10.82;7.90;;;14.30;99.90;;;;;;5043045;28;20041;-74
2023/05/10 08:18:46;;;;;;;9.23;7.75;;;14.40;99.90;;;;;;5045108;28;20471;-78
2023/05/10 08:21:13;;;;;;;10.60;8.35;;;14.40;99.90;;;;;;5041794;28;20127;-76
2023/05/10 08:23:39;;;;;;;11.95;8.07;;;14.30;99.90;;;;;;5037533;28;20040;-74
2023/05/10 08:26:05;;;;;;;11.85;7.45;;;14.40;99.90;;;;;;5044240;28;20392;-77
2023/05/10 08:28:31;;;;;;;8.77;6.72;;;14.40;99.90;;;;;;5043579;28;20131;-78
2023/05/10 08:30:56;;;;;;;9.70;6.68;;;14.40;99.90;;;;;;5039640;28;20123;-73
2023/05/10 08:33:22;;;;;;;10.23;6.78;;;14.40;99.90;;;;;;5043386;28;20045;-75
2023/05/10 08:35:48;;;;;;;8.27;6.72;;;14.40;99.90;;;;;;5046247;28;20037;-75
2023/05/10 08:38:13;;;;;;;8.48;6.28;;;14.40;99.90;;;;;;5044600;28;20045;-76
2023/05/10 08:40:43;;;;;;;7.90;6.10;;;14.40;99.90;;;;;;5041142;28;20537;-74
2023/05/10 08:43:12;;;;;;;8.90;5.93;;;14.40;99.90;;;;;;5044239;28;20071;-77
2023/05/10 08:45:40;;;;;;;8.68;6.35;;;14.40;99.90;;;;;;5043998;28;20049;-73
2023/05/10 08:48:07;;;;;;;9.45;6.03;;;14.40;99.90;;;;;;5042310;28;20434;-73
2023/05/10 08:50:37;;;;;;;7.57;5.90;;;14.50;99.90;;;;;;5039307;28;20072;-74
2023/05/10 08:53:10;;;;;;;9.55;5.90;;;14.50;99.90;;;;;;5045839;28;20479;-74
2023/05/10 08:55:38;;;;;;;10.43;6.75;;;14.40;99.90;;;;;;5049457;28;20710;-74
2023/05/10 08:58:04;;;;;;;8.70;6.20;;;14.40;99.90;;;;;;5046747;28;20041;-73
2023/05/10 09:00:30;;;;;;;9.03;6.40;;;14.40;99.90;;;;;;5046910;28;20075;-73
2023/05/10 09:02:58;;;;;;;7.35;5.07;;;14.40;99.90;;;;;;5047275;28;20041;-73
2023/05/10 09:05:24;;;;;;;;;;;14.40;99.90;;;;;;5048889;28;20102;-73
2023/05/10 09:07:49;;;;;;;6.53;3.90;;;14.40;99.90;;;;;;5046812;28;19921;-68
2023/05/10 09:10:16;;;;;;;6.05;4.25;;;14.40;99.90;;;;;;5048190;28;20124;-67
2023/05/10 09:12:43;;;;;;;6.43;4.53;;;14.40;99.90;;;;;;5043414;28;20763;-70
2023/05/10 09:15:10;;;;;;;;;;;14.50;99.90;;;;;;5050020;28;20041;-72
2023/05/10 09:17:36;;;;;;;6.63;4.97;;;14.50;99.90;;;;;;5046212;28;19970;-73
2023/05/10 09:20:04;;;;;;;8.55;5.10;;;14.50;99.90;;;;;;5047575;28;20049;-72
2023/05/10 09:22:33;;;;;;;8.63;5.15;;;14.50;99.90;;;;;;5047977;28;20052;-72
2023/05/10 09:25:10;;;;;;;6.65;4.72;;;14.50;99.90;;;;;;5045856;28;20082;-71
2023/05/10 09:27:37;;;;;;;8.20;4.65;;;14.60;99.90;;;;;;5049399;28;20037;-71
2023/05/10 09:30:05;;;;;;;6.22;4.78;;;14.60;99.90;;;;;;5047513;28;20053;-72
2023/05/10 09:32:42;;;;;;;7.00;4.15;;;14.70;99.90;;;;;;5048475;28;20048;-72
2023/05/10 09:35:19;;;;;;;6.10;4.00;;;14.70;99.90;;;;;;5046644;28;20040;-73
2023/05/10 09:37:49;;;;;;;5.03;3.40;;;14.80;99.90;;;;;;5041696;28;20488;-72
2023/05/10 09:40:20;;;;;;;4.95;3.53;;;14.80;99.90;;;;;;5047965;28;20503;-71
2023/05/10 09:42:58;;;;;;;5.07;3.63;;;14.80;99.90;;;;;;5040825;28;20045;-70
2023/05/10 09:45:29;;;;;;;5.55;3.50;;;14.80;99.90;;;;;;5039053;28;20049;-75
2023/05/10 09:47:55;;;;;;;5.25;3.72;;;14.80;99.90;;;;;;5047723;28;20048;-72
2023/05/10 09:58:13;;;;;;;6.18;4.03;;;14.80;99.90;;;;;;5374209;22;20064;-73
2023/05/10 10:00:41;;;;;;;6.30;4.25;;;14.90;99.90;;;;;;5026109;28;20437;-75
2023/05/10 10:03:16;;;;;;;4.45;3.65;;;14.90;99.90;;;;;;5031970;28;20057;-77
2023/05/10 10:05:43;;;;;;;6.05;4.20;;;15.00;99.90;;;;;;5027727;28;20172;-77
2023/05/10 10:08:09;;;;;;;5.88;4.20;;;15.10;99.90;;;;;;5027597;28;20553;-78
2023/05/10 10:10:35;;;;;;;5.53;4.55;;;15.20;99.90;;;;;;5035596;28;20041;-81
2023/05/10 10:13:01;;;;;;;5.90;4.20;;;15.30;99.90;;;;;;5024993;28;20155;-80
2023/05/10 10:15:27;;;;;;;7.20;4.90;;;15.30;99.90;;;;;;5034880;28;20048;-71
2023/05/10 10:17:54;;;;;;;6.50;4.82;;;15.30;99.90;;;;;;5036312;28;20483;-77
2023/05/10 10:20:21;;;;;;;6.83;4.93;;;15.30;99.90;;;;;;5024239;28;20052;-77
2023/05/10 10:22:47;;;;;;;6.47;5.07;;;15.30;99.90;;;;;;5024548;28;20128;-78
2023/05/10 10:25:16;;;;;;;7.03;5.18;;;15.40;99.90;;;;;;5023396;28;21339;-75
2023/05/10 10:27:47;;;;;;;6.22;5.47;;;15.40;99.90;;;;;;5020841;28;20084;-79
2023/05/10 10:30:32;;;;;;;5.85;5.18;;;15.30;99.90;;;;;;5031862;28;20033;-83
2023/05/10 10:33:26;;;;;;;6.53;5.47;;;15.30;99.90;;;;;;5036581;28;20403;-75
2023/05/10 10:35:53;;;;;;;7.20;6.05;;;15.30;99.90;;;;;;5035806;28;20056;-81
2023/05/10 10:38:18;;;;;;;7.15;5.93;;;15.30;99.90;;;;;;5030205;28;20057;-80
2023/05/10 10:40:44;;;;;;;7.20;6.03;;;15.40;99.90;;;;;;5032524;28;20041;-81
2023/05/10 10:43:27;;;;;;;7.75;5.90;;;15.40;99.90;;;;;;5021694;28;20072;-76
2023/05/10 10:46:15;;;;;;;8.57;6.40;;;15.50;99.90;;;;;;5028392;28;20048;-79
2023/05/10 10:49:08;;;;;;;7.57;5.90;;;15.50;99.90;;;;;;5029872;28;20123;-81
2023/05/10 10:52:00;;;;;;;7.15;5.57;;;15.50;99.90;;;;;;5032392;28;20063;-78
2023/05/10 10:54:29;;;;;;;9.55;6.57;;;15.60;99.90;;;;;;5030745;28;20056;-84
2023/05/10 10:57:14;;;;;;;8.80;6.72;;;15.60;99.90;;;;;;5028658;28;20387;-77
2023/05/10 10:59:44;;;;;;;6.75;5.75;;;15.60;99.90;;;;;;5023860;28;20072;-78
2023/05/10 11:02:30;;;;;;;6.43;5.28;;;15.60;99.90;;;;;;5020426;28;20080;-76
2023/05/10 11:04:55;;;;;;;8.00;6.23;;;15.70;99.90;;;;;;5016818;28;20057;-79
2023/05/10 11:07:21;;;;;;;8.30;6.57;;;15.70;99.90;;;;;;5022594;28;20519;-76
2023/05/10 11:09:47;;;;;;;8.23;5.97;;;15.80;99.90;;;;;;5016520;28;21103;-78
2023/05/10 11:12:13;;;;;;;7.07;5.35;;;15.90;99.90;;;;;;5026703;28;20045;-79
2023/05/10 11:14:39;;;;;;;7.40;5.50;;;15.90;99.90;;;;;;5023695;28;22235;-77
2023/05/10 11:17:26;;;;;;;7.80;6.22;;;16.00;99.90;;;;;;5018984;28;20128;-79
2023/05/10 11:20:13;;;;;;;7.88;6.05;;;15.90;99.90;;;;;;5025945;28;20537;-80
2023/05/10 11:23:10;;;;;;;7.20;6.30;;;15.90;99.90;;;;;;5019471;28;20859;-79
2023/05/10 11:25:43;;;;;;;;;;;15.90;99.90;;;;;;5029434;28;20572;-81
2023/05/10 11:28:09;;;;;;;8.55;6.47;;;15.90;99.90;;;;;;5022854;28;20058;-77
2023/05/10 11:30:36;;;;;;;8.40;6.50;;;15.90;99.90;;;;;;5027936;28;20561;-79
2023/05/10 11:33:02;;;;;;;9.95;7.65;;;15.90;99.90;;;;;;5025548;28;20060;-79
2023/05/10 11:35:28;;;;;;;9.05;7.57;;;15.90;99.90;;;;;;5023597;28;20072;-77
2023/05/10 11:37:53;;;;;;;9.10;7.57;;;15.80;99.90;;;;;;5029199;28;20124;-77
2023/05/10 11:40:24;;;;;;;10.48;8.55;;;15.90;99.90;;;;;;5028611;28;20059;-78
2023/05/10 11:42:50;;;;;;;9.48;8.20;;;15.90;99.90;;;;;;5027992;28;20050;-74
2023/05/10 11:45:18;;;;;;;10.93;9.20;;;15.80;99.90;;;;;;5028386;28;20040;-69
2023/05/10 11:47:44;;;;;;;10.32;8.70;;;15.90;99.90;;;;;;5027474;28;20045;-72
2023/05/10 11:50:11;;;;;;;11.20;8.77;;;15.90;99.90;;;;;;5028515;28;20988;-75
2023/05/10 11:52:37;;;;;;;10.82;9.07;;;16.00;99.90;;;;;;5021653;28;20037;-73
2023/05/10 11:55:03;;;;;;;10.63;8.45;;;16.00;99.90;;;;;;5041580;28;20057;-77
2023/05/10 11:57:30;;;;;;;10.75;8.20;;;16.00;99.90;;;;;;5028007;28;20438;-76
2023/05/10 11:59:58;;;;;;;10.88;8.57;;;16.10;99.90;;;;;;5033476;28;20118;-71
2023/05/10 12:02:24;;;;;;;9.73;8.73;;;16.00;99.90;;;;;;5023493;28;20083;-70
2023/05/10 12:04:50;;;;;;;8.93;7.95;;;16.10;99.90;;;;;;5035151;28;20404;-73
2023/05/10 12:07:17;;;;;;;9.10;8.13;;;16.10;99.90;;;;;;5034517;28;21726;-74
2023/05/10 12:09:44;;;;;;;10.57;8.23;;;16.00;99.90;;;;;;5025738;28;20300;-75
2023/05/10 12:12:15;;;;;;;11.02;8.52;;;16.00;99.90;;;;;;5011920;28;20110;-75
2023/05/10 12:14:41;;;;;;;11.32;9.50;;;15.90;99.90;;;;;;5023417;28;20052;-75
2023/05/10 12:17:11;;;;;;;12.00;9.68;;;15.90;99.90;;;;;;5021154;28;20465;-71
2023/05/10 12:19:37;;;;;;;12.00;9.75;;;15.90;99.90;;;;;;5030238;28;20045;-75
2023/05/10 12:22:08;;;;;;;12.30;9.80;;;15.90;99.90;;;;;;5021175;28;20045;-70
2023/05/10 12:24:35;;;;;;;10.88;9.77;;;15.90;99.90;;;;;;5024136;28;20292;-69
2023/05/10 12:27:04;;;;;;;;;;;15.80;99.90;;;;;;5025315;28;20183;-69
2023/05/10 12:29:30;;;;;;;13.13;10.10;;;15.80;99.90;;;;;;5013525;28;19971;-73
2023/05/10 12:31:58;;;;;;;12.93;9.32;;;15.80;99.90;;;;;;5025803;28;20049;-71
2023/05/10 12:34:35;;;;;;;10.77;9.23;;;15.80;99.90;;;;;;5028982;28;20053;-72
2023/05/10 12:37:02;;;;;;;10.88;9.00;;;15.90;99.90;;;;;;5035138;28;20098;-70
2023/05/10 12:39:42;;;;;;;10.80;8.77;;;15.90;99.90;;;;;;5033443;28;20060;-70
2023/05/10 12:42:08;;;;;;;12.90;9.45;;;15.90;99.90;;;;;;5032999;28;20044;-70
2023/05/10 12:44:34;;;;;;;13.57;9.60;;;16.00;99.90;;;;;;5031261;28;20095;-69
2023/05/10 12:46:59;;;;;;;10.23;8.90;;;16.00;99.90;;;;;;5027161;28;20084;-70
2023/05/10 12:49:25;;;;;;;11.52;8.90;;;16.10;99.90;;;;;;5024771;28;20048;-72
2023/05/10 12:51:50;;;;;;;10.75;9.50;;;16.10;99.90;;;;;;5033034;28;20047;-69